createdAt,value
2023-01-11T00:03:02.997Z,68.00
2023-01-11T00:06:05.016Z,68.30
2023-01-11T00:09:07.043Z,67.80
2023-01-11T00:12:09.158Z,67.90
2023-01-11T00:15:11.606Z,66.70
2023-01-11T00:18:13.585Z,67.20
2023-01-11T00:21:17.908Z,67.40
2023-01-11T00:24:19.824Z,66.60
2023-01-11T00:27:21.760Z,67.10
2023-01-11T00:30:23.691Z,66.30
2023-01-11T00:33:25.699Z,66.60
2023-01-11T00:36:27.754Z,66.40
2023-01-11T00:39:29.636Z,66.90
2023-01-11T00:42:31.621Z,67.10
2023-01-11T00:45:33.594Z,67.50
2023-01-11T00:48:35.498Z,67.20
2023-01-11T00:51:37.387Z,67.70
2023-01-11T00:54:41.084Z,67.90
2023-01-11T00:57:43.029Z,67.60
2023-01-11T01:00:45.136Z,67.80
2023-01-11T01:03:47.041Z,67.90
2023-01-11T01:06:49.011Z,68.60
2023-01-11T01:09:50.991Z,68.10
2023-01-11T01:12:52.896Z,69.50
2023-01-11T01:15:58.130Z,68.80
2023-01-11T01:19:00.458Z,68.70
2023-01-11T01:22:02.848Z,68.90
2023-01-11T01:25:05.326Z,69.70
2023-01-11T01:28:07.218Z,69.40
2023-01-11T01:31:09.164Z,69.70
2023-01-11T01:34:11.636Z,69.80
2023-01-11T01:37:13.609Z,69.90
2023-01-11T01:40:15.604Z,69.90
2023-01-11T01:43:18.243Z,70.40
2023-01-11T01:46:21.373Z,70.70
2023-01-11T01:49:23.241Z,70.70
2023-01-11T01:52:26.790Z,71.20
2023-01-11T01:55:33.052Z,71.70
2023-01-11T01:58:40.353Z,72.40
2023-01-11T02:01:42.458Z,72.90
2023-01-11T02:04:46.625Z,72.60
2023-01-11T02:07:48.685Z,73.10
2023-01-11T02:10:53.686Z,73.40
2023-01-11T02:14:00.999Z,74.30
2023-01-11T02:17:03.013Z,74.40
2023-01-11T02:20:34.555Z,74.80
2023-01-11T02:24:18.803Z,76.50
2023-01-11T02:27:48.835Z,77.00
2023-01-11T02:31:02.247Z,77.40
2023-01-11T02:34:16.458Z,77.70
2023-01-11T02:37:41.881Z,78.10
2023-01-11T02:40:54.532Z,78.80
2023-01-11T02:44:00.320Z,79.00
2023-01-11T02:47:07.322Z,79.20
2023-01-11T02:50:24.021Z,79.60
2023-01-11T02:53:39.912Z,80.00
2023-01-11T02:56:46.303Z,79.90
2023-01-11T02:59:50.121Z,79.90
2023-01-11T03:03:17.535Z,80.10
2023-01-11T03:06:39.755Z,80.40
2023-01-11T03:10:17.166Z,80.80
2023-01-11T03:13:53.668Z,81.00
2023-01-11T03:17:10.649Z,81.30
2023-01-11T03:20:25.448Z,81.60
2023-01-11T03:23:51.179Z,81.50
2023-01-11T03:27:12.233Z,81.50
2023-01-11T03:30:39.072Z,81.60
2023-01-11T03:33:52.725Z,81.60
2023-01-11T03:36:56.739Z,81.60
2023-01-11T03:40:09.602Z,81.40
2023-01-11T03:43:16.442Z,81.20
2023-01-11T03:46:24.029Z,81.00
2023-01-11T03:49:38.579Z,81.00
2023-01-11T03:52:43.229Z,80.80
2023-01-11T03:55:47.922Z,80.70
2023-01-11T03:58:49.972Z,80.70
2023-01-11T04:01:54.445Z,80.50
2023-01-11T04:04:56.457Z,80.40
2023-01-11T04:07:58.393Z,80.10
2023-01-11T04:11:00.260Z,80.10
2023-01-11T04:14:02.147Z,79.90
2023-01-11T04:17:05.256Z,79.50
2023-01-11T04:20:08.701Z,79.50
2023-01-11T04:23:10.608Z,79.40
2023-01-11T04:26:12.921Z,79.30
2023-01-11T04:29:14.788Z,79.30
2023-01-11T04:32:16.652Z,79.10
2023-01-11T04:35:18.811Z,79.10
2023-01-11T04:38:20.678Z,79.10
2023-01-11T04:41:23.702Z,79.00
2023-01-11T04:44:25.728Z,79.00
2023-01-11T04:47:27.764Z,79.00
2023-01-11T04:50:29.697Z,79.00
2023-01-11T04:53:31.791Z,78.90
2023-01-11T04:56:34.115Z,78.70
2023-01-11T04:59:35.979Z,78.80
2023-01-11T05:02:38.792Z,78.70
2023-01-11T05:05:40.624Z,78.90
2023-01-11T05:08:47.086Z,78.80
2023-01-11T05:11:48.960Z,79.10
2023-01-11T05:14:51.149Z,78.50
2023-01-11T05:17:53.173Z,78.30
2023-01-11T05:20:57.276Z,78.30
2023-01-11T05:24:01.038Z,78.50
2023-01-11T05:27:02.956Z,78.20
2023-01-11T05:30:05.200Z,78.10
2023-01-11T05:33:07.105Z,77.90
2023-01-11T05:36:18.245Z,77.90
2023-01-11T05:39:20.147Z,77.70
2023-01-11T05:42:22.411Z,78.00
2023-01-11T05:45:24.294Z,78.00
2023-01-11T05:48:26.409Z,77.90
2023-01-11T05:51:29.595Z,78.00
2023-01-11T05:54:31.602Z,78.00
2023-01-11T05:57:35.971Z,77.90
2023-01-11T06:00:37.890Z,77.90
2023-01-11T06:03:39.754Z,77.80
2023-01-11T06:06:41.805Z,77.80
2023-01-11T06:09:43.628Z,78.00
2023-01-11T06:12:48.714Z,78.10
2023-01-11T06:15:50.620Z,78.10
2023-01-11T06:18:53.724Z,78.10
2023-01-11T06:21:55.611Z,78.10
2023-01-11T06:24:57.423Z,78.20
2023-01-11T06:27:59.818Z,78.30
2023-01-11T06:31:01.925Z,78.30
2023-01-11T06:34:03.898Z,78.10
2023-01-11T06:37:05.764Z,78.30
2023-01-11T06:40:08.180Z,78.10
2023-01-11T06:43:10.420Z,78.20
2023-01-11T06:46:13.880Z,78.10
2023-01-11T06:49:15.738Z,78.30
2023-01-11T06:52:17.619Z,78.20
2023-01-11T06:55:19.699Z,78.30
2023-01-11T06:58:23.533Z,78.30
2023-01-11T07:01:25.633Z,78.20
2023-01-11T07:04:27.567Z,78.20
2023-01-11T07:07:29.599Z,78.30
2023-01-11T07:10:31.512Z,77.80
2023-01-11T07:13:33.472Z,77.80
2023-01-11T07:16:35.373Z,77.80
2023-01-11T07:19:37.328Z,77.60
2023-01-11T07:22:39.138Z,77.80
2023-01-11T07:25:41.101Z,77.90
2023-01-11T07:28:43.739Z,77.70
2023-01-11T07:31:46.272Z,77.70
2023-01-11T07:34:48.169Z,77.80
2023-01-11T07:37:50.015Z,78.10
2023-01-11T07:40:51.953Z,77.70
2023-01-11T07:43:53.858Z,77.80
2023-01-11T07:46:55.815Z,78.20
2023-01-11T07:49:57.768Z,77.90
2023-01-11T07:52:59.587Z,77.90
2023-01-11T07:56:01.551Z,78.20
2023-01-11T07:59:03.426Z,78.20
2023-01-11T08:02:05.247Z,78.00
2023-01-11T08:05:07.680Z,78.20
2023-01-11T08:08:09.710Z,78.10
2023-01-11T08:11:11.897Z,78.00
2023-01-11T08:14:16.033Z,77.90
2023-01-11T08:17:17.933Z,77.80
2023-01-11T08:20:19.883Z,78.00
2023-01-11T08:23:21.865Z,78.20
2023-01-11T08:26:24.997Z,78.10
2023-01-11T08:29:27.198Z,78.40
2023-01-11T08:32:29.372Z,78.50
2023-01-11T08:35:32.465Z,78.70
2023-01-11T08:38:34.598Z,79.00
2023-01-11T08:41:36.478Z,79.10
2023-01-11T08:44:38.309Z,79.00
2023-01-11T08:47:42.667Z,79.20
2023-01-11T08:50:44.556Z,79.30
2023-01-11T08:53:46.373Z,79.70
2023-01-11T08:56:50.517Z,80.00
2023-01-11T08:59:52.376Z,80.20
2023-01-11T09:02:54.402Z,80.40
2023-01-11T09:05:56.663Z,80.90
2023-01-11T09:08:58.564Z,81.20
2023-01-11T09:12:00.466Z,81.60
2023-01-11T09:15:02.585Z,82.10
2023-01-11T09:18:04.616Z,83.00
2023-01-11T09:21:06.482Z,83.70
2023-01-11T09:24:08.663Z,84.50
2023-01-11T09:27:10.737Z,85.30
2023-01-11T09:30:14.842Z,85.90
2023-01-11T09:33:16.664Z,86.30
2023-01-11T09:36:18.532Z,86.70
2023-01-11T09:39:20.512Z,87.60
2023-01-11T09:42:27.940Z,87.70
2023-01-11T09:45:30.939Z,88.00
2023-01-11T09:48:37.861Z,88.10
2023-01-11T09:51:39.809Z,87.60
2023-01-11T09:54:41.747Z,87.50
2023-01-11T09:57:57.047Z,88.00
2023-01-11T10:01:36.300Z,88.00
2023-01-11T10:04:59.833Z,88.00
2023-01-11T10:18:32.990Z,87.60
2023-01-11T10:22:39.139Z,87.40
2023-01-11T10:25:44.845Z,87.60
2023-01-11T10:29:01.512Z,87.70
2023-01-11T10:32:03.653Z,87.30
2023-01-11T10:35:31.280Z,87.60
2023-01-11T10:38:37.964Z,87.40
2023-01-11T10:41:48.253Z,87.40
2023-01-11T10:45:18.255Z,88.10
2023-01-11T10:48:37.085Z,87.80
2023-01-11T10:51:45.928Z,87.80
2023-01-11T10:54:48.648Z,87.90
2023-01-11T10:58:14.376Z,87.50
2023-01-11T11:01:28.428Z,87.80
2023-01-11T11:04:36.395Z,87.70
2023-01-11T11:08:07.085Z,87.50
2023-01-11T11:11:13.671Z,87.80
2023-01-11T11:14:27.909Z,87.50
2023-01-11T11:17:39.095Z,87.50
2023-01-11T11:20:41.341Z,87.40
2023-01-11T11:23:43.630Z,87.90
2023-01-11T11:26:51.698Z,88.10
2023-01-11T11:29:55.962Z,88.00
2023-01-11T11:33:01.319Z,87.70
2023-01-11T11:36:09.285Z,88.20
2023-01-11T11:39:18.269Z,88.00
2023-01-11T11:42:21.318Z,88.30
2023-01-11T11:45:23.212Z,88.30
2023-01-11T11:48:27.442Z,88.30
2023-01-11T12:03:28.550Z,89.20
2023-01-11T12:06:30.893Z,89.70
2023-01-11T12:09:34.794Z,89.30
2023-01-11T12:12:57.127Z,88.80
2023-01-11T12:16:05.469Z,88.50
2023-01-11T12:19:41.211Z,88.70
2023-01-11T12:22:43.057Z,88.30
2023-01-11T12:25:59.598Z,88.90
2023-01-11T12:29:23.226Z,89.00
2023-01-11T12:32:47.002Z,89.50
2023-01-11T12:35:51.904Z,90.10
2023-01-11T12:39:06.088Z,90.20
2023-01-11T12:42:42.489Z,89.60
2023-01-11T12:45:55.207Z,89.60
2023-01-11T12:49:26.145Z,89.40
2023-01-11T12:52:43.389Z,89.50
2023-01-11T12:56:05.793Z,89.80
2023-01-11T12:59:13.687Z,89.50
2023-01-11T13:02:41.638Z,89.70
2023-01-11T13:06:06.765Z,89.60
2023-01-11T13:09:26.864Z,89.40
2023-01-11T13:13:10.541Z,89.30
2023-01-11T13:16:15.515Z,89.30
2023-01-11T13:19:36.128Z,89.20
2023-01-11T13:22:43.779Z,89.50
2023-01-11T13:25:49.019Z,89.50
2023-01-11T13:29:13.458Z,89.50
2023-01-11T13:32:19.852Z,89.70
2023-01-11T13:35:55.996Z,89.90
2023-01-11T13:39:16.139Z,89.50
2023-01-11T13:42:26.639Z,88.80
2023-01-11T13:45:36.982Z,88.50
2023-01-11T13:48:44.360Z,88.70
2023-01-11T13:52:14.745Z,88.70
2023-01-11T13:55:34.980Z,88.80
2023-01-11T13:58:55.368Z,88.90
2023-01-11T14:01:59.676Z,88.80
2023-01-11T14:05:17.170Z,88.70
2023-01-11T14:08:48.833Z,88.80
2023-01-11T14:11:59.973Z,88.80
2023-01-11T14:15:17.024Z,88.80
2023-01-11T14:18:18.876Z,88.90
2023-01-11T14:21:47.137Z,88.80
2023-01-11T14:25:01.813Z,88.80
2023-01-11T14:28:22.334Z,89.00
2023-01-11T14:32:04.360Z,89.00
2023-01-11T14:35:21.490Z,88.70
2023-01-11T14:38:50.385Z,89.10
2023-01-11T14:42:07.011Z,88.80
2023-01-11T14:45:37.570Z,89.10
2023-01-11T14:49:13.984Z,89.00
2023-01-11T14:52:38.525Z,89.00
2023-01-11T14:55:43.574Z,89.30
2023-01-11T14:59:02.365Z,89.50
2023-01-11T15:02:04.515Z,89.20
2023-01-11T15:05:10.514Z,89.10
2023-01-11T15:08:15.484Z,88.40
2023-01-11T15:11:40.577Z,88.20
2023-01-11T15:14:53.257Z,88.80
2023-01-11T15:17:57.169Z,88.40
2023-01-11T15:21:05.053Z,88.50
2023-01-11T15:24:29.824Z,88.80
2023-01-11T15:27:37.202Z,88.60
2023-01-11T15:30:39.257Z,88.70
2023-01-11T15:33:54.501Z,88.50
2023-01-11T15:37:02.433Z,88.70
2023-01-11T15:40:15.980Z,88.40
2023-01-11T15:43:44.977Z,88.20
2023-01-11T15:47:09.233Z,87.90
2023-01-11T15:50:29.866Z,87.60
2023-01-11T15:54:05.935Z,86.40
2023-01-11T15:57:17.250Z,85.90
2023-01-11T16:00:37.399Z,86.10
2023-01-11T16:07:26.549Z,84.90
2023-01-11T16:10:31.217Z,84.60
2023-01-11T16:13:35.884Z,84.20
2023-01-11T16:16:43.672Z,83.70
2023-01-11T16:19:45.734Z,84.20
2023-01-11T16:22:53.845Z,84.10
2023-01-11T16:25:58.679Z,84.80
2023-01-11T16:29:07.742Z,84.20
2023-01-11T16:32:27.967Z,84.30
2023-01-11T16:35:29.846Z,84.50
2023-01-11T16:38:37.685Z,83.40
2023-01-11T16:42:05.478Z,83.70
2023-01-11T16:45:15.416Z,83.90
2023-01-11T16:48:22.527Z,82.30
2023-01-11T16:51:24.408Z,83.00
2023-01-11T16:57:43.704Z,83.50
2023-01-11T17:00:57.825Z,82.70
2023-01-11T17:07:24.113Z,84.20
2023-01-11T17:10:29.054Z,83.70
2023-01-11T17:14:06.276Z,82.90
2023-01-11T17:17:10.780Z,82.30
2023-01-11T17:20:25.713Z,82.60
2023-01-11T17:23:27.701Z,82.50
2023-01-11T17:26:38.163Z,82.00
2023-01-11T17:29:43.210Z,82.10
2023-01-11T17:32:47.822Z,82.30
2023-01-11T17:35:49.988Z,82.10
2023-01-11T17:38:54.298Z,81.90
2023-01-11T17:41:59.282Z,81.50
2023-01-11T17:45:03.822Z,81.50
2023-01-11T17:48:15.888Z,81.60
2023-01-11T17:51:34.675Z,81.30
2023-01-11T17:54:39.482Z,81.00
2023-01-11T17:58:13.347Z,81.30
2023-01-11T18:01:24.022Z,81.70
2023-01-11T18:04:27.345Z,81.90
2023-01-11T18:07:29.897Z,81.50
2023-01-11T18:10:36.344Z,81.70
2023-01-11T18:13:38.278Z,82.20
2023-01-11T18:17:05.598Z,82.70
2023-01-11T18:20:10.769Z,82.70
2023-01-11T18:23:12.677Z,83.00
2023-01-11T18:26:28.909Z,83.10
2023-01-11T18:29:36.640Z,83.20
2023-01-11T18:32:42.220Z,83.20
2023-01-11T18:35:46.776Z,83.70
2023-01-11T18:38:49.325Z,82.80
2023-01-11T18:41:51.462Z,83.20
2023-01-11T18:44:53.342Z,83.10
2023-01-11T18:47:55.216Z,82.80
2023-01-11T18:50:57.725Z,82.90
2023-01-11T18:53:59.612Z,83.00
2023-01-11T18:57:01.474Z,83.30
2023-01-11T19:00:04.006Z,82.80
2023-01-11T19:03:07.294Z,82.50
2023-01-11T19:06:12.479Z,82.10
2023-01-11T19:09:20.755Z,81.90
2023-01-11T19:12:28.771Z,82.10
2023-01-11T19:15:30.719Z,81.90
2023-01-11T19:18:35.092Z,81.90
2023-01-11T19:21:37.367Z,81.30
2023-01-11T19:24:39.999Z,81.90
2023-01-11T19:27:41.923Z,82.10
2023-01-11T19:30:43.771Z,82.20
2023-01-11T19:33:46.442Z,82.20
2023-01-11T19:36:49.846Z,82.40
2023-01-11T19:39:51.707Z,82.50
2023-01-11T19:42:53.570Z,82.40
2023-01-11T19:45:59.244Z,82.20
2023-01-11T19:49:01.147Z,82.60
2023-01-11T19:55:10.056Z,82.50
2023-01-11T19:58:12.144Z,82.50
2023-01-11T20:01:17.481Z,82.70
2023-01-11T20:04:19.418Z,82.90
2023-01-11T20:07:21.398Z,82.70
2023-01-11T20:10:23.267Z,82.90
2023-01-11T20:13:25.154Z,82.70
2023-01-11T20:16:26.980Z,82.90
2023-01-11T20:19:34.891Z,82.70
2023-01-11T20:22:36.757Z,82.60
2023-01-11T20:25:40.779Z,82.30
2023-01-11T20:28:49.168Z,82.00
2023-01-11T20:31:51.035Z,82.00
2023-01-11T20:34:52.917Z,81.90
2023-01-11T20:37:55.099Z,81.80
2023-01-11T20:40:57.085Z,82.00
2023-01-11T20:43:59.395Z,82.10
2023-01-11T20:47:01.225Z,82.20
2023-01-11T20:50:05.640Z,81.50
2023-01-11T20:53:07.506Z,82.00
2023-01-11T20:56:09.866Z,81.60
2023-01-11T20:59:14.771Z,81.90
2023-01-11T21:02:16.651Z,81.70
2023-01-11T21:05:18.699Z,81.80
2023-01-11T21:08:20.616Z,81.70
2023-01-11T21:11:22.864Z,81.70
2023-01-11T21:14:24.714Z,81.60
2023-01-11T21:17:26.599Z,81.50
2023-01-11T21:20:28.452Z,81.70
2023-01-11T21:23:30.457Z,81.20
2023-01-11T21:26:33.007Z,81.40
2023-01-11T21:29:36.278Z,81.40
2023-01-11T21:32:38.200Z,81.50
2023-01-11T21:35:40.056Z,81.20
2023-01-11T21:38:42.214Z,81.00
2023-01-11T21:41:44.510Z,81.30
2023-01-11T21:44:46.407Z,81.20
2023-01-11T21:47:48.251Z,80.90
2023-01-11T21:50:50.297Z,81.20
2023-01-11T21:53:52.284Z,81.20
2023-01-11T21:56:54.215Z,81.20
2023-01-11T21:59:56.056Z,80.70
2023-01-11T22:02:58.052Z,80.90
2023-01-11T22:06:01.447Z,80.40
2023-01-11T22:09:05.653Z,80.30
2023-01-11T22:12:08.463Z,80.40
2023-01-11T22:15:11.027Z,80.80
2023-01-11T22:18:14.563Z,80.00
2023-01-11T22:21:18.328Z,79.90
2023-01-11T22:24:20.179Z,79.50
2023-01-11T22:27:22.028Z,80.00
2023-01-11T22:30:24.151Z,78.90
2023-01-11T22:33:25.994Z,79.10
2023-01-11T22:36:28.956Z,79.00
2023-01-11T22:39:30.833Z,79.10
2023-01-11T22:42:32.791Z,78.30
2023-01-11T22:45:34.750Z,78.60
2023-01-11T22:48:36.611Z,78.60
2023-01-11T22:51:39.517Z,78.20
2023-01-11T22:54:41.392Z,77.90
2023-01-11T22:57:43.345Z,77.90
2023-01-11T23:00:45.201Z,78.00
2023-01-11T23:03:47.506Z,77.80
2023-01-11T23:06:49.340Z,77.40
2023-01-11T23:09:51.193Z,77.30
2023-01-11T23:12:53.073Z,76.80
2023-01-11T23:15:56.518Z,76.80
2023-01-11T23:18:58.501Z,76.70
2023-01-11T23:22:00.482Z,76.80
2023-01-11T23:25:02.280Z,77.00
2023-01-11T23:28:04.324Z,76.30
2023-01-11T23:31:17.817Z,76.20
2023-01-11T23:34:19.959Z,76.50
2023-01-11T23:37:21.821Z,76.70
2023-01-11T23:40:23.696Z,77.30
2023-01-11T23:43:25.712Z,76.60
2023-01-11T23:46:28.204Z,77.00
2023-01-11T23:49:31.539Z,76.10
2023-01-11T23:52:33.419Z,76.00
2023-01-11T23:55:35.319Z,76.10
2023-01-11T23:58:37.203Z,76.00
